createdAt,value
2023-01-20T00:01:24.944Z,80.80
2023-01-20T00:03:56.468Z,80.80
2023-01-20T00:06:24.529Z,80.80
2023-01-20T00:08:55.840Z,80.80
2023-01-20T00:11:22.491Z,80.90
2023-01-20T00:13:52.929Z,81.00
2023-01-20T00:16:19.564Z,81.00
2023-01-20T00:18:46.132Z,81.00
2023-01-20T00:21:14.101Z,81.10
2023-01-20T00:23:41.130Z,81.20
2023-01-20T00:26:10.911Z,81.10
2023-01-20T00:28:37.708Z,81.30
2023-01-20T00:31:31.461Z,81.30
2023-01-20T00:34:00.346Z,81.40
2023-01-20T00:36:28.998Z,81.50
2023-01-20T00:38:55.600Z,81.60
2023-01-20T00:41:22.773Z,81.60
2023-01-20T00:43:49.968Z,81.70
2023-01-20T00:46:17.229Z,81.70
2023-01-20T00:48:43.944Z,81.70
2023-01-20T00:51:11.220Z,81.80
2023-01-20T00:53:38.008Z,81.90
2023-01-20T00:56:05.341Z,82.10
2023-01-20T00:58:31.995Z,81.90
2023-01-20T01:00:59.195Z,82.00
2023-01-20T01:03:27.828Z,81.90
2023-01-20T01:05:54.846Z,82.00
2023-01-20T01:08:21.542Z,82.10
2023-01-20T01:10:48.183Z,82.20
2023-01-20T01:13:14.757Z,82.10
2023-01-20T01:15:48.422Z,82.00
2023-01-20T01:18:15.043Z,82.10
2023-01-20T01:20:41.632Z,82.10
2023-01-20T01:23:08.261Z,82.10
2023-01-20T01:25:34.897Z,82.20
2023-01-20T01:28:01.761Z,82.30
2023-01-20T01:30:28.396Z,82.30
2023-01-20T01:32:55.028Z,82.30
2023-01-20T01:35:21.607Z,82.30
2023-01-20T01:37:48.240Z,82.30
2023-01-20T01:40:14.970Z,82.30
2023-01-20T01:42:42.892Z,82.30
2023-01-20T01:45:13.431Z,82.40
2023-01-20T01:47:40.319Z,82.40
2023-01-20T01:50:09.952Z,82.50
2023-01-20T01:52:36.855Z,82.40
2023-01-20T01:55:04.161Z,82.40
2023-01-20T01:57:32.258Z,82.40
2023-01-20T01:59:58.895Z,82.50
2023-01-20T02:02:25.770Z,82.50
2023-01-20T02:04:52.448Z,82.50
2023-01-20T02:07:20.932Z,82.50
2023-01-20T02:09:47.999Z,82.50
2023-01-20T02:12:17.572Z,82.50
2023-01-20T02:14:48.712Z,82.50
2023-01-20T02:17:21.303Z,82.50
2023-01-20T02:20:06.761Z,82.90
2023-01-20T02:22:36.508Z,82.40
2023-01-20T02:25:08.939Z,82.40
2023-01-20T02:28:01.941Z,82.40
2023-01-20T02:30:59.827Z,82.50
2023-01-20T02:33:30.016Z,82.40
2023-01-20T02:36:07.117Z,82.40
2023-01-20T02:38:45.332Z,82.40
2023-01-20T02:41:20.727Z,82.40
2023-01-20T02:43:57.639Z,82.30
2023-01-20T02:46:36.641Z,82.40
2023-01-20T02:49:23.073Z,82.40
2023-01-20T02:52:13.242Z,82.40
2023-01-20T02:54:44.496Z,82.40
2023-01-20T02:57:15.724Z,82.50
2023-01-20T02:59:47.708Z,82.40
2023-01-20T03:02:19.644Z,82.50
2023-01-20T03:04:52.936Z,82.50
2023-01-20T03:07:24.048Z,82.50
2023-01-20T03:09:53.903Z,82.50
2023-01-20T03:12:29.160Z,82.60
2023-01-20T03:14:55.964Z,82.50
2023-01-20T03:17:22.786Z,82.50
2023-01-20T03:19:49.649Z,82.60
2023-01-20T03:22:16.654Z,82.70
2023-01-20T03:24:45.911Z,82.80
2023-01-20T03:27:13.365Z,82.90
2023-01-20T03:29:39.978Z,83.00
2023-01-20T03:32:09.167Z,83.10
2023-01-20T03:34:39.014Z,83.20
2023-01-20T03:37:06.570Z,83.20
2023-01-20T03:39:34.482Z,83.30
2023-01-20T03:42:14.199Z,83.30
2023-01-20T03:45:28.465Z,83.20
2023-01-20T03:48:24.434Z,83.20
2023-01-20T03:51:13.885Z,83.00
2023-01-20T03:53:52.721Z,83.00
2023-01-20T03:56:25.124Z,83.10
2023-01-20T03:58:54.584Z,83.10
2023-01-20T04:01:24.981Z,83.10
2023-01-20T04:03:54.693Z,83.10
2023-01-20T04:06:25.440Z,83.10
2023-01-20T04:08:57.052Z,83.10
2023-01-20T04:11:24.129Z,83.10
2023-01-20T04:13:51.322Z,83.10
2023-01-20T04:16:19.056Z,83.20
2023-01-20T04:18:48.175Z,83.10
2023-01-20T04:21:22.157Z,83.10
2023-01-20T04:23:59.003Z,83.00
2023-01-20T04:26:25.662Z,83.80
2023-01-20T04:28:52.259Z,83.10
2023-01-20T04:31:30.178Z,83.10
2023-01-20T04:33:57.352Z,83.10
2023-01-20T04:36:23.999Z,83.20
2023-01-20T04:38:50.620Z,83.20
2023-01-20T04:41:17.199Z,83.30
2023-01-20T04:43:45.155Z,83.20
2023-01-20T04:46:12.980Z,83.20
2023-01-20T04:48:39.790Z,83.20
2023-01-20T04:51:07.800Z,83.20
2023-01-20T04:53:34.843Z,83.30
2023-01-20T04:56:01.447Z,83.20
2023-01-20T04:58:28.124Z,83.20
2023-01-20T05:00:54.847Z,83.20
2023-01-20T05:03:21.640Z,83.20
2023-01-20T05:05:54.864Z,83.20
2023-01-20T05:08:21.877Z,83.20
2023-01-20T05:10:48.782Z,84.00
2023-01-20T05:13:15.818Z,83.10
2023-01-20T05:15:44.117Z,83.20
2023-01-20T05:18:10.784Z,83.20
2023-01-20T05:20:37.465Z,83.30
2023-01-20T05:23:04.140Z,83.30
2023-01-20T05:25:30.930Z,83.50
2023-01-20T05:27:59.768Z,84.10
2023-01-20T05:30:26.446Z,83.40
2023-01-20T05:32:54.175Z,83.50
2023-01-20T05:35:20.984Z,83.40
2023-01-20T05:37:47.651Z,83.40
2023-01-20T05:40:14.328Z,83.40
2023-01-20T05:42:40.926Z,83.40
2023-01-20T05:45:09.175Z,83.40
2023-01-20T05:47:35.894Z,83.40
2023-01-20T05:50:04.252Z,83.40
2023-01-20T05:52:30.933Z,83.40
2023-01-20T05:54:57.692Z,83.40
2023-01-20T05:57:25.255Z,83.50
2023-01-20T05:59:52.674Z,83.50
2023-01-20T06:02:20.186Z,83.50
2023-01-20T06:04:47.599Z,83.50
2023-01-20T06:07:15.216Z,83.50
2023-01-20T06:09:41.930Z,83.50
2023-01-20T06:12:08.508Z,83.40
2023-01-20T06:14:35.122Z,83.50
2023-01-20T06:17:01.904Z,83.50
2023-01-20T06:19:28.487Z,83.50
2023-01-20T06:21:55.175Z,83.50
2023-01-20T06:24:21.775Z,83.50
2023-01-20T06:26:50.834Z,83.50
2023-01-20T06:29:17.730Z,83.50
2023-01-20T06:31:45.528Z,83.60
2023-01-20T06:34:12.678Z,83.60
2023-01-20T06:36:39.930Z,83.50
2023-01-20T06:39:06.549Z,83.60
2023-01-20T06:41:33.280Z,83.50
2023-01-20T06:43:59.944Z,83.40
2023-01-20T06:46:26.642Z,83.40
2023-01-20T06:49:00.099Z,83.50
2023-01-20T06:51:28.448Z,83.60
2023-01-20T06:53:55.528Z,83.70
2023-01-20T06:56:22.403Z,83.70
2023-01-20T06:58:49.125Z,83.90
2023-01-20T07:01:23.104Z,83.80
2023-01-20T07:03:50.054Z,83.80
2023-01-20T07:06:39.695Z,83.80
2023-01-20T07:09:12.894Z,83.80
2023-01-20T07:11:40.024Z,83.90
2023-01-20T07:14:07.218Z,83.90
2023-01-20T07:16:34.980Z,83.80
2023-01-20T07:19:01.780Z,83.90
2023-01-20T07:21:28.724Z,83.90
2023-01-20T07:23:55.366Z,83.90
2023-01-20T07:26:24.377Z,83.90
2023-01-20T07:28:51.875Z,83.90
2023-01-20T07:31:21.852Z,83.90
2023-01-20T07:33:48.947Z,83.90
2023-01-20T07:36:16.319Z,83.90
2023-01-20T07:38:46.223Z,83.90
2023-01-20T07:41:16.327Z,83.90
2023-01-20T07:43:44.274Z,83.90
2023-01-20T07:46:11.690Z,83.90
2023-01-20T07:48:38.727Z,83.90
2023-01-20T07:51:09.883Z,83.90
2023-01-20T07:53:41.990Z,83.90
2023-01-20T07:56:16.988Z,83.90
2023-01-20T07:58:47.495Z,83.90
2023-01-20T08:01:26.283Z,83.90
2023-01-20T08:03:53.578Z,83.90
2023-01-20T08:06:22.778Z,83.90
2023-01-20T08:08:49.902Z,84.00
2023-01-20T08:11:18.427Z,84.00
2023-01-20T08:13:45.101Z,84.00
2023-01-20T08:16:14.026Z,84.00
2023-01-20T08:18:41.124Z,84.00
2023-01-20T08:21:16.325Z,83.90
2023-01-20T08:23:42.933Z,84.00
2023-01-20T08:26:09.520Z,84.00
2023-01-20T08:28:36.405Z,84.00
2023-01-20T08:31:11.894Z,84.00
2023-01-20T08:33:39.484Z,84.00
2023-01-20T08:36:13.222Z,84.00
2023-01-20T08:38:40.783Z,84.00
2023-01-20T08:41:09.916Z,84.00
2023-01-20T08:43:37.552Z,83.90
2023-01-20T08:46:07.796Z,84.00
2023-01-20T08:48:35.884Z,84.00
2023-01-20T08:51:17.339Z,84.00
2023-01-20T08:53:44.068Z,84.00
2023-01-20T08:56:11.866Z,84.00
2023-01-20T08:58:38.907Z,84.00
2023-01-20T09:01:18.275Z,84.00
2023-01-20T09:03:59.272Z,84.00
2023-01-20T09:06:31.062Z,84.00
2023-01-20T09:08:57.679Z,83.80
2023-01-20T09:11:25.237Z,83.80
2023-01-20T09:13:52.759Z,83.80
2023-01-20T09:16:19.704Z,84.00
2023-01-20T09:18:46.656Z,83.90
2023-01-20T09:21:13.299Z,83.90
2023-01-20T09:23:40.806Z,83.90
2023-01-20T09:26:08.176Z,83.70
2023-01-20T09:28:35.682Z,83.70
2023-01-20T09:31:05.240Z,83.70
2023-01-20T09:33:35.944Z,84.50
2023-01-20T09:36:03.634Z,83.80
2023-01-20T09:38:48.885Z,83.70
2023-01-20T09:41:36.063Z,83.70
2023-01-20T09:44:42.993Z,83.90
2023-01-20T09:47:36.057Z,83.80
2023-01-20T09:50:32.956Z,83.90
2023-01-20T09:53:15.450Z,83.70
2023-01-20T09:55:53.756Z,83.80
2023-01-20T09:58:53.633Z,83.80
2023-01-20T10:01:31.651Z,83.70
2023-01-20T10:04:13.999Z,83.60
2023-01-20T10:06:54.306Z,83.60
2023-01-20T10:09:23.691Z,83.60
2023-01-20T10:11:54.080Z,83.40
2023-01-20T10:14:32.964Z,83.40
2023-01-20T10:17:21.612Z,83.40
2023-01-20T10:20:03.958Z,84.00
2023-01-20T10:22:45.549Z,83.30
2023-01-20T10:25:21.746Z,83.20
2023-01-20T10:28:00.200Z,83.40
2023-01-20T10:30:31.946Z,83.40
2023-01-20T10:33:29.716Z,83.50
2023-01-20T10:35:59.631Z,83.50
2023-01-20T10:38:53.962Z,83.60
2023-01-20T10:41:45.276Z,83.60
2023-01-20T10:44:13.854Z,83.60
2023-01-20T10:47:00.841Z,83.50
2023-01-20T10:49:27.422Z,83.50
2023-01-20T10:52:17.689Z,83.50
2023-01-20T10:55:02.208Z,83.40
2023-01-20T10:57:28.970Z,83.30
2023-01-20T11:00:06.905Z,83.30
2023-01-20T11:02:37.746Z,83.30
2023-01-20T11:05:19.072Z,83.30
2023-01-20T11:07:47.040Z,83.20
2023-01-20T11:10:18.589Z,83.40
2023-01-20T11:12:48.556Z,83.30
2023-01-20T11:15:29.653Z,83.20
2023-01-20T11:18:14.635Z,83.10
2023-01-20T11:21:11.297Z,83.10
2023-01-20T11:23:57.601Z,83.00
2023-01-20T11:26:28.384Z,83.00
2023-01-20T11:28:58.105Z,83.00
2023-01-20T11:31:45.422Z,83.20
2023-01-20T11:34:17.835Z,83.20
2023-01-20T11:36:46.211Z,83.30
2023-01-20T11:39:30.676Z,83.30
2023-01-20T11:42:17.319Z,83.20
2023-01-20T11:44:49.522Z,83.30
2023-01-20T11:47:30.455Z,83.30
2023-01-20T11:50:25.212Z,83.40
2023-01-20T11:52:52.498Z,83.30
2023-01-20T11:55:25.326Z,83.00
2023-01-20T11:57:55.108Z,82.80
2023-01-20T12:00:27.490Z,83.00
2023-01-20T12:03:22.794Z,82.90
2023-01-20T12:05:57.122Z,82.80
2023-01-20T12:08:43.891Z,82.50
2023-01-20T12:11:14.766Z,82.30
2023-01-20T12:14:07.317Z,82.30
2023-01-20T12:16:35.300Z,82.30
2023-01-20T12:19:10.359Z,82.20
2023-01-20T12:21:42.700Z,82.30
2023-01-20T12:24:21.429Z,82.20
2023-01-20T12:26:48.605Z,82.20
2023-01-20T12:29:44.704Z,82.30
2023-01-20T12:32:11.327Z,82.30
2023-01-20T12:34:38.703Z,82.30
2023-01-20T12:37:22.040Z,82.40
2023-01-20T12:40:23.732Z,82.40
2023-01-20T12:42:53.101Z,82.40
2023-01-20T12:45:53.156Z,82.30
2023-01-20T12:48:37.948Z,82.40
2023-01-20T12:51:11.419Z,82.50
2023-01-20T12:53:44.103Z,82.50
2023-01-20T12:56:57.944Z,82.50
2023-01-20T12:59:36.758Z,82.60
2023-01-20T13:02:42.388Z,82.60
2023-01-20T13:05:26.642Z,82.60
2023-01-20T13:07:59.266Z,82.60
2023-01-20T13:10:56.396Z,82.60
2023-01-20T13:13:29.243Z,82.70
2023-01-20T13:16:08.935Z,82.70
2023-01-20T13:18:52.547Z,82.70
2023-01-20T13:21:21.126Z,82.50
2023-01-20T13:23:50.564Z,82.60
2023-01-20T13:26:17.970Z,82.50
2023-01-20T13:28:55.410Z,82.50
2023-01-20T13:31:37.329Z,82.50
2023-01-20T13:34:22.233Z,82.50
2023-01-20T13:37:23.406Z,82.60
2023-01-20T13:39:54.244Z,82.50
2023-01-20T13:42:39.093Z,82.40
2023-01-20T13:45:11.695Z,82.50
2023-01-20T13:48:06.125Z,82.50
2023-01-20T13:50:39.121Z,82.40
2023-01-20T13:53:22.047Z,82.40
2023-01-20T13:55:48.660Z,82.40
2023-01-20T13:58:25.193Z,82.50
2023-01-20T14:01:06.430Z,82.50
2023-01-20T14:03:38.212Z,82.50
2023-01-20T14:06:23.977Z,82.50
2023-01-20T14:08:51.557Z,82.60
2023-01-20T14:11:24.087Z,82.60
2023-01-20T14:13:56.279Z,82.60
2023-01-20T14:16:27.207Z,82.60
2023-01-20T14:19:25.254Z,82.70
2023-01-20T14:21:55.547Z,82.70
2023-01-20T14:24:28.402Z,82.70
2023-01-20T14:27:16.618Z,82.60
2023-01-20T14:29:44.345Z,82.70
2023-01-20T14:32:34.454Z,82.70
2023-01-20T14:35:04.212Z,82.80
2023-01-20T14:37:37.727Z,82.80
2023-01-20T14:40:40.261Z,82.80
2023-01-20T14:43:22.408Z,82.80
2023-01-20T14:45:51.585Z,82.80
2023-01-20T14:48:33.468Z,82.80
2023-01-20T14:51:03.975Z,82.80
2023-01-20T14:53:30.808Z,82.80
2023-01-20T14:56:07.585Z,82.90
2023-01-20T14:58:34.978Z,83.00
2023-01-20T15:01:04.183Z,82.90
2023-01-20T15:03:31.816Z,83.00
2023-01-20T15:06:05.560Z,83.00
2023-01-20T15:08:35.021Z,82.90
2023-01-20T15:11:18.072Z,83.00
2023-01-20T15:14:00.173Z,82.90
2023-01-20T15:16:32.221Z,83.00
2023-01-20T15:19:14.118Z,83.00
2023-01-20T15:21:44.241Z,83.00
2023-01-20T15:24:30.299Z,83.00
2023-01-20T15:26:58.803Z,83.00
2023-01-20T15:29:28.256Z,83.00
2023-01-20T15:31:57.496Z,83.00
2023-01-20T15:34:25.294Z,83.00
2023-01-20T15:36:53.011Z,83.00
2023-01-20T15:39:25.938Z,82.90
2023-01-20T15:41:55.440Z,83.00
2023-01-20T15:44:22.433Z,83.00
2023-01-20T15:46:49.147Z,83.00
2023-01-20T15:49:16.868Z,83.00
2023-01-20T15:51:44.660Z,83.00
2023-01-20T15:54:11.868Z,83.10
2023-01-20T15:56:40.969Z,83.20
2023-01-20T15:59:16.314Z,83.20
2023-01-20T16:01:46.927Z,83.10
2023-01-20T16:04:13.561Z,83.10
2023-01-20T16:06:40.337Z,83.10
2023-01-20T16:09:29.762Z,83.10
2023-01-20T16:11:56.700Z,83.10
2023-01-20T16:14:23.321Z,83.10
2023-01-20T16:16:49.989Z,83.10
2023-01-20T16:19:18.772Z,83.00
2023-01-20T16:21:45.791Z,83.10
2023-01-20T16:24:12.884Z,83.10
2023-01-20T16:26:39.694Z,83.10
2023-01-20T16:29:06.306Z,83.20
2023-01-20T16:31:33.524Z,83.70
2023-01-20T16:34:00.303Z,83.10
2023-01-20T16:36:27.055Z,83.00
2023-01-20T16:38:53.943Z,83.10
2023-01-20T16:41:27.615Z,83.20
2023-01-20T16:43:55.269Z,83.30
2023-01-20T16:46:30.187Z,83.20
2023-01-20T16:49:01.768Z,83.20
2023-01-20T16:51:29.613Z,83.20
2023-01-20T16:53:57.432Z,83.20
2023-01-20T16:56:29.060Z,83.20
2023-01-20T16:58:57.970Z,83.20
2023-01-20T17:01:25.524Z,83.20
2023-01-20T17:03:54.555Z,83.20
2023-01-20T17:06:24.253Z,83.20
2023-01-20T17:08:52.961Z,83.20
2023-01-20T17:11:25.550Z,83.20
2023-01-20T17:13:53.079Z,83.10
2023-01-20T17:16:20.501Z,83.20
2023-01-20T17:18:51.514Z,83.20
2023-01-20T17:21:20.544Z,83.20
2023-01-20T17:23:59.515Z,83.20
2023-01-20T17:26:26.230Z,83.20
2023-01-20T17:28:58.122Z,83.20
2023-01-20T17:31:25.301Z,83.20
2023-01-20T17:33:52.027Z,83.20
2023-01-20T17:36:18.753Z,83.20
2023-01-20T17:38:45.480Z,83.20
2023-01-20T17:41:13.769Z,83.20
2023-01-20T17:43:47.712Z,83.20
2023-01-20T17:46:17.144Z,83.20
2023-01-20T17:48:44.983Z,83.20
2023-01-20T17:51:21.691Z,83.20
2023-01-20T17:53:48.567Z,83.10
2023-01-20T17:56:16.223Z,83.10
2023-01-20T17:58:44.423Z,83.20
2023-01-20T18:01:16.519Z,83.20
2023-01-20T18:03:44.091Z,83.20
2023-01-20T18:06:12.606Z,83.20
2023-01-20T18:08:40.213Z,83.10
2023-01-20T18:11:12.402Z,83.10
2023-01-20T18:13:39.339Z,83.10
2023-01-20T18:16:07.878Z,83.20
2023-01-20T18:18:34.694Z,83.20
2023-01-20T18:21:18.441Z,83.20
2023-01-20T18:23:46.372Z,83.10
2023-01-20T18:26:14.766Z,83.10
2023-01-20T18:28:41.733Z,83.10
2023-01-20T18:31:10.866Z,83.20
2023-01-20T18:33:47.430Z,83.20
2023-01-20T18:36:23.367Z,83.20
2023-01-20T18:38:51.559Z,83.20
2023-01-20T18:41:18.703Z,83.20
2023-01-20T18:43:45.453Z,83.20
2023-01-20T18:46:12.196Z,83.20
2023-01-20T18:48:40.321Z,83.20
2023-01-20T18:51:10.035Z,83.20
2023-01-20T18:53:37.088Z,83.20
2023-01-20T18:56:09.022Z,83.10
2023-01-20T18:58:37.347Z,83.10
2023-01-20T19:01:05.288Z,83.20
2023-01-20T19:03:32.178Z,83.20
2023-01-20T19:06:11.149Z,83.10
2023-01-20T19:08:38.890Z,83.20
2023-01-20T19:11:13.316Z,83.20
2023-01-20T19:13:41.456Z,83.10
2023-01-20T19:16:10.359Z,83.20
2023-01-20T19:18:37.595Z,83.10
2023-01-20T19:21:06.037Z,83.10
2023-01-20T19:23:32.908Z,83.10
2023-01-20T19:26:11.153Z,83.10
2023-01-20T19:28:38.359Z,83.10
2023-01-20T19:31:08.432Z,83.10
2023-01-20T19:33:36.480Z,83.20
2023-01-20T19:36:06.290Z,83.10
2023-01-20T19:38:34.420Z,83.10
2023-01-20T19:41:12.316Z,83.10
2023-01-20T19:43:39.455Z,83.10
2023-01-20T19:46:08.212Z,83.10
2023-01-20T19:48:35.032Z,83.10
2023-01-20T19:51:03.569Z,83.20
2023-01-20T19:53:30.524Z,83.10
2023-01-20T19:56:11.751Z,83.10
2023-01-20T19:58:39.471Z,83.10
2023-01-20T20:01:07.058Z,83.00
2023-01-20T20:03:33.725Z,83.00
2023-01-20T20:06:00.452Z,83.00
2023-01-20T20:08:27.119Z,83.00
2023-01-20T20:10:53.759Z,83.00
2023-01-20T20:13:22.700Z,83.00
2023-01-20T20:15:49.777Z,83.00
2023-01-20T20:18:16.428Z,82.90
2023-01-20T20:20:44.535Z,82.90
2023-01-20T20:23:11.118Z,82.90
2023-01-20T20:25:37.801Z,82.90
2023-01-20T20:28:04.826Z,82.90
2023-01-20T20:30:31.840Z,82.80
2023-01-20T20:32:58.589Z,82.80
2023-01-20T20:35:25.143Z,82.90
2023-01-20T20:37:51.815Z,82.90
2023-01-20T20:40:18.786Z,82.80
2023-01-20T20:42:45.416Z,82.80
2023-01-20T20:45:12.146Z,82.80
2023-01-20T20:47:38.720Z,82.80
2023-01-20T20:50:05.903Z,82.80
2023-01-20T20:52:32.485Z,82.80
2023-01-20T20:54:59.047Z,82.80
2023-01-20T20:57:25.672Z,82.80
2023-01-20T20:59:58.960Z,82.80
2023-01-20T21:02:26.126Z,82.80
2023-01-20T21:04:52.782Z,82.90
2023-01-20T21:07:19.489Z,82.90
2023-01-20T21:09:46.145Z,83.00
2023-01-20T21:12:12.714Z,82.80
2023-01-20T21:14:39.287Z,82.70
2023-01-20T21:17:05.887Z,82.70
2023-01-20T21:19:32.502Z,82.80
2023-01-20T21:21:59.187Z,82.70
2023-01-20T21:24:29.865Z,82.80
2023-01-20T21:26:56.495Z,82.80
2023-01-20T21:29:23.212Z,82.80
2023-01-20T21:31:50.257Z,82.80
2023-01-20T21:34:17.949Z,82.70
2023-01-20T21:36:44.896Z,82.70
2023-01-20T21:39:13.655Z,82.50
2023-01-20T21:41:40.395Z,82.60
2023-01-20T21:44:29.736Z,82.60
2023-01-20T21:47:04.307Z,82.50
2023-01-20T21:49:49.789Z,82.40
2023-01-20T21:52:37.161Z,82.40
2023-01-20T21:55:04.789Z,82.40
2023-01-20T21:57:32.658Z,82.40
2023-01-20T22:00:00.796Z,82.40
2023-01-20T22:05:09.901Z,82.40
2023-01-20T22:07:41.428Z,82.40
2023-01-20T22:10:10.499Z,82.40
2023-01-20T22:12:38.282Z,82.40
2023-01-20T22:15:07.309Z,82.40
2023-01-20T22:17:35.141Z,82.50
2023-01-20T22:20:04.716Z,82.40
2023-01-20T22:22:31.311Z,82.40
2023-01-20T22:24:57.993Z,82.40
2023-01-20T22:27:24.625Z,82.40
2023-01-20T22:29:51.297Z,82.30
2023-01-20T22:32:18.151Z,82.40
2023-01-20T22:34:47.713Z,82.30
2023-01-20T22:37:15.842Z,82.30
2023-01-20T22:39:42.649Z,82.50
2023-01-20T22:42:09.811Z,82.30
2023-01-20T22:44:36.661Z,82.30
2023-01-20T22:47:05.669Z,82.30
2023-01-20T22:49:32.294Z,82.50
2023-01-20T22:51:58.877Z,82.50
2023-01-20T22:54:25.557Z,82.50
2023-01-20T22:56:52.256Z,82.50
2023-01-20T22:59:18.897Z,82.50
2023-01-20T23:01:45.646Z,82.50
2023-01-20T23:04:12.298Z,82.50
2023-01-20T23:06:39.360Z,82.50
2023-01-20T23:09:08.804Z,82.50
2023-01-20T23:11:38.469Z,82.50
2023-01-20T23:14:05.798Z,82.40
2023-01-20T23:16:33.044Z,82.40
2023-01-20T23:19:03.597Z,82.30
2023-01-20T23:21:30.335Z,82.30
2023-01-20T23:23:57.226Z,82.30
2023-01-20T23:26:27.322Z,82.80
2023-01-20T23:28:55.391Z,82.20
2023-01-20T23:31:31.173Z,82.30
2023-01-20T23:33:57.821Z,82.30
2023-01-20T23:36:26.175Z,82.30
2023-01-20T23:38:54.483Z,82.30
2023-01-20T23:41:21.419Z,82.30
2023-01-20T23:43:48.145Z,82.30
2023-01-20T23:46:14.833Z,82.30
2023-01-20T23:48:41.480Z,82.40
2023-01-20T23:51:08.265Z,82.40
2023-01-20T23:53:38.329Z,82.50
2023-01-20T23:56:07.604Z,82.40
2023-01-20T23:58:34.156Z,82.50
